Time;durP1;ratioP1;P1;durP2;ratioP2;P2;SDS_P1;SDS_P2;PMS_P1;PMS_P2;Temp;Humidity;BMP_temperature;BMP_pressure;BME280_temperature;BME280_humidity;BME280_pressure;Samples;Min_cycle;Max_cycle;Signal;HPM_P1;HPM_P2
2021/09/12 00:01:27;;;;;;;1.40;1.10;;;26.80;51.70;;;;;;5051520;28;20098;-51
2021/09/12 00:03:52;;;;;;;1.25;0.90;;;26.80;51.70;;;;;;5048429;28;20037;-59
2021/09/12 00:06:18;;;;;;;2.10;1.10;;;26.80;51.70;;;;;;5042510;28;20041;-60
2021/09/12 00:08:44;;;;;;;1.80;1.25;;;26.80;51.60;;;;;;5047317;28;20072;-59
2021/09/12 00:11:09;;;;;;;1.52;1.02;;;26.80;51.60;;;;;;5035623;28;20797;-51
2021/09/12 00:13:35;;;;;;;1.33;1.00;;;26.80;51.50;;;;;;5050004;28;20049;-52
2021/09/12 00:19:24;;;;;;;1.73;1.10;;;26.80;51.50;;;;;;5053201;28;20032;-52
2021/09/12 00:25:12;;;;;;;1.45;0.90;;;26.90;51.60;;;;;;5041301;28;20052;-57
2021/09/12 00:27:38;;;;;;;1.40;0.90;;;26.90;51.60;;;;;;5039381;28;20032;-52
2021/09/12 00:30:05;;;;;;;1.45;1.00;;;26.90;51.60;;;;;;5043338;28;20558;-56
2021/09/12 00:32:32;;;;;;;2.28;1.10;;;26.90;52.10;;;;;;5036592;28;20167;-56
2021/09/12 00:34:58;;;;;;;1.33;1.00;;;26.90;51.60;;;;;;5044748;28;20031;-53
2021/09/12 00:37:24;;;;;;;1.55;1.13;;;26.90;51.60;;;;;;5032893;28;20896;-59
2021/09/12 00:39:49;;;;;;;1.30;1.10;;;26.90;51.50;;;;;;5037141;28;20033;-58
2021/09/12 00:42:15;;;;;;;1.73;1.10;;;26.90;51.50;;;;;;5045901;28;20041;-53
2021/09/12 00:44:40;;;;;;;1.27;1.13;;;26.90;51.50;;;;;;5047355;28;20025;-52
2021/09/12 00:47:12;;;;;;;1.50;1.10;;;26.90;51.50;;;;;;5038277;28;20029;-51
2021/09/12 00:49:39;;;;;;;1.33;0.98;;;26.90;51.50;;;;;;5038926;28;20029;-60
2021/09/12 00:52:09;;;;;;;1.83;1.00;;;27.00;51.50;;;;;;5029761;28;20118;-58
2021/09/12 00:54:36;;;;;;;1.42;1.10;;;27.00;51.50;;;;;;5037414;28;20513;-57
2021/09/12 00:57:05;;;;;;;1.10;1.00;;;27.00;51.40;;;;;;5032450;28;20131;-60
2021/09/12 00:59:32;;;;;;;2.53;1.00;;;27.00;51.40;;;;;;5036463;28;20125;-59
2021/09/12 01:01:58;;;;;;;1.20;1.02;;;27.00;51.40;;;;;;5042238;28;20210;-58
2021/09/12 01:04:24;;;;;;;1.10;1.00;;;27.00;51.40;;;;;;5038254;28;20112;-54
2021/09/12 01:06:50;;;;;;;1.10;0.93;;;27.00;51.30;;;;;;5043011;28;20029;-58
2021/09/12 01:09:15;;;;;;;1.33;1.00;;;27.00;51.30;;;;;;5027886;28;20029;-59
2021/09/12 01:11:41;;;;;;;1.25;1.00;;;27.00;51.30;;;;;;5042118;28;20040;-58
2021/09/12 01:14:07;;;;;;;1.10;0.90;;;27.00;51.30;;;;;;5030999;28;20029;-52
2021/09/12 01:16:32;;;;;;;1.73;1.20;;;27.00;51.30;;;;;;5039142;28;20048;-49
2021/09/12 01:18:58;;;;;;;2.92;1.20;;;27.00;51.30;;;;;;5055101;28;20020;-55
2021/09/12 01:21:25;;;;;;;1.63;1.10;;;27.00;51.30;;;;;;5040952;28;20120;-56
2021/09/12 01:23:52;;;;;;;1.42;1.00;;;27.00;51.30;;;;;;5043261;28;20377;-61
2021/09/12 01:26:27;;;;;;;1.55;1.10;;;26.90;51.30;;;;;;5048254;28;20032;-53
2021/09/12 01:28:54;;;;;;;1.42;1.00;;;27.00;51.30;;;;;;5043597;28;20052;-59
2021/09/12 01:31:25;;;;;;;1.50;1.05;;;27.00;51.30;;;;;;5038654;28;20029;-59
2021/09/12 01:33:50;;;;;;;1.45;1.10;;;26.90;51.30;;;;;;5043890;28;20040;-53
2021/09/12 01:36:17;;;;;;;1.30;1.00;;;26.90;51.30;;;;;;5055329;28;20032;-53
2021/09/12 01:38:44;;;;;;;1.63;1.00;;;26.90;51.30;;;;;;5047487;28;20075;-55
2021/09/12 01:41:09;;;;;;;1.70;1.10;;;26.90;51.30;;;;;;5049764;28;20501;-59
2021/09/12 01:43:35;;;;;;;1.50;1.10;;;26.90;51.30;;;;;;5044785;28;20120;-59
2021/09/12 01:46:00;;;;;;;1.77;1.10;;;26.90;51.40;;;;;;5045638;28;20131;-52
2021/09/12 01:48:26;;;;;;;2.10;1.05;;;26.80;51.30;;;;;;5039954;28;20093;-53
2021/09/12 01:50:52;;;;;;;1.33;0.90;;;26.80;51.30;;;;;;5046134;28;20083;-53
2021/09/12 01:53:17;;;;;;;2.22;1.20;;;26.80;51.40;;;;;;5040327;28;20029;-51
2021/09/12 01:55:43;;;;;;;1.80;1.25;;;26.80;51.40;;;;;;5045128;28;20468;-50
2021/09/12 01:58:09;;;;;;;1.58;1.20;;;26.70;51.40;;;;;;5047300;28;20041;-54
2021/09/12 02:00:34;;;;;;;1.88;1.00;;;26.70;51.40;;;;;;5045822;28;20400;-52
2021/09/12 02:03:00;;;;;;;1.42;1.00;;;26.70;51.50;;;;;;5039637;28;20029;-56
2021/09/12 02:05:26;;;;;;;1.30;1.00;;;26.70;51.40;;;;;;5037360;28;20033;-59
2021/09/12 02:07:52;;;;;;;1.20;1.02;;;26.70;51.40;;;;;;5043147;28;20440;-60
2021/09/12 02:10:17;;;;;;;1.48;1.10;;;26.70;51.40;;;;;;5049014;28;20036;-57
2021/09/12 02:12:43;;;;;;;1.27;1.00;;;26.60;51.40;;;;;;5047812;28;20075;-59
2021/09/12 02:15:09;;;;;;;2.45;1.10;;;26.60;51.40;;;;;;5045268;28;20101;-57
2021/09/12 02:17:36;;;;;;;1.60;1.13;;;26.60;51.40;;;;;;5045473;28;20051;-59
2021/09/12 02:20:03;;;;;;;1.20;1.10;;;26.60;51.50;;;;;;5049062;28;20086;-58
2021/09/12 02:22:28;;;;;;;1.52;1.17;;;26.50;51.50;;;;;;5032270;28;20381;-58
2021/09/12 02:24:54;;;;;;;1.45;1.00;;;26.50;51.50;;;;;;5036314;28;20025;-59
2021/09/12 02:27:19;;;;;;;1.40;0.98;;;26.50;51.50;;;;;;5038630;28;20101;-59
2021/09/12 02:29:45;;;;;;;2.42;1.20;;;26.50;51.50;;;;;;5029245;28;20052;-55
2021/09/12 02:32:10;;;;;;;1.15;0.90;;;26.50;51.60;;;;;;5041035;28;20041;-58
2021/09/12 02:34:36;;;;;;;1.33;1.10;;;26.50;51.60;;;;;;5038076;28;20553;-53
2021/09/12 02:37:02;;;;;;;1.52;0.90;;;26.40;51.60;;;;;;5044278;28;20480;-59
2021/09/12 02:39:27;;;;;;;1.55;1.00;;;26.50;51.60;;;;;;5030299;28;20033;-50
2021/09/12 02:41:53;;;;;;;1.20;0.80;;;26.40;51.60;;;;;;5031349;28;20532;-59
2021/09/12 02:44:19;;;;;;;1.58;0.90;;;26.40;51.60;;;;;;5041864;28;20140;-60
2021/09/12 02:46:44;;;;;;;1.20;1.00;;;26.40;51.70;;;;;;5036625;28;20021;-59
2021/09/12 02:49:10;;;;;;;1.73;1.00;;;26.40;51.70;;;;;;5032847;28;20060;-55
2021/09/12 02:51:35;;;;;;;1.23;0.98;;;26.40;51.70;;;;;;5033776;28;20458;-60
2021/09/12 02:54:01;;;;;;;1.42;1.00;;;26.30;51.70;;;;;;5037653;28;20056;-60
2021/09/12 02:56:26;;;;;;;0.98;0.88;;;26.30;51.70;;;;;;5036040;28;20124;-59
2021/09/12 02:58:52;;;;;;;1.40;1.10;;;26.30;51.70;;;;;;5048198;28;20029;-53
2021/09/12 03:01:17;;;;;;;1.10;0.90;;;26.30;51.80;;;;;;5044712;28;20500;-57
2021/09/12 03:03:43;;;;;;;1.52;1.10;;;26.20;51.70;;;;;;5044893;28;20118;-51
2021/09/12 03:06:09;;;;;;;1.20;0.80;;;26.20;51.70;;;;;;5040409;28;20043;-59
2021/09/12 03:08:34;;;;;;;1.08;0.98;;;26.20;51.80;;;;;;5044881;28;20496;-47
2021/09/12 03:11:00;;;;;;;1.55;0.90;;;26.20;51.80;;;;;;5046137;28;20029;-53
2021/09/12 03:13:25;;;;;;;1.33;0.90;;;26.20;51.80;;;;;;5041648;28;20031;-49
2021/09/12 03:15:51;;;;;;;1.30;1.00;;;26.20;51.90;;;;;;5041169;28;20026;-53
2021/09/12 03:18:17;;;;;;;1.35;0.82;;;26.20;51.90;;;;;;5042646;28;20025;-56
2021/09/12 03:20:42;;;;;;;1.55;1.05;;;26.20;52.00;;;;;;5029964;28;20033;-56
2021/09/12 03:23:08;;;;;;;1.10;0.90;;;26.20;52.00;;;;;;5033725;28;20033;-58
2021/09/12 03:25:33;;;;;;;1.55;1.15;;;26.10;51.90;;;;;;5029885;28;20029;-58
2021/09/12 03:27:59;;;;;;;1.45;1.00;;;26.10;52.00;;;;;;5037327;28;20527;-51
2021/09/12 03:30:25;;;;;;;2.13;0.95;;;26.10;52.00;;;;;;5031748;28;20025;-51
2021/09/12 03:32:50;;;;;;;1.02;0.90;;;26.10;52.00;;;;;;5014106;28;20462;-59
2021/09/12 03:35:16;;;;;;;1.00;0.90;;;26.10;52.10;;;;;;5021037;28;20036;-59
2021/09/12 03:37:42;;;;;;;1.70;1.00;;;26.10;52.10;;;;;;5009821;28;20034;-52
2021/09/12 03:40:09;;;;;;;1.33;0.88;;;26.00;52.00;;;;;;5009830;28;20034;-58
2021/09/12 03:42:34;;;;;;;1.20;1.00;;;26.00;52.10;;;;;;5019237;28;20029;-52
2021/09/12 03:45:00;;;;;;;1.33;0.90;;;26.00;52.10;;;;;;5020594;28;20037;-59
2021/09/12 03:47:25;;;;;;;1.10;0.90;;;26.00;52.10;;;;;;5021667;28;20021;-50
2021/09/12 03:49:51;;;;;;;1.13;0.90;;;26.00;52.10;;;;;;5024846;28;20038;-50
2021/09/12 03:52:17;;;;;;;1.25;0.98;;;25.90;52.10;;;;;;5023864;28;20026;-53
2021/09/12 03:54:42;;;;;;;1.17;0.90;;;25.90;52.10;;;;;;5026919;28;20037;-60
2021/09/12 03:57:08;;;;;;;1.33;0.90;;;25.90;52.10;;;;;;5021969;28;20373;-60
2021/09/12 03:59:33;;;;;;;0.95;0.80;;;25.90;52.20;;;;;;5022097;28;20038;-52
2021/09/12 04:01:59;;;;;;;1.35;0.95;;;25.90;52.20;;;;;;5031694;28;20048;-54
2021/09/12 04:04:24;;;;;;;1.00;0.90;;;25.90;52.20;;;;;;5036290;28;20025;-51
2021/09/12 04:06:50;;;;;;;1.48;0.90;;;25.90;52.30;;;;;;5044013;28;20051;-59
2021/09/12 04:09:16;;;;;;;2.10;1.00;;;25.80;52.30;;;;;;5044301;28;20039;-51
2021/09/12 04:11:41;;;;;;;1.10;0.98;;;25.80;52.20;;;;;;5040057;28;20041;-59
2021/09/12 04:14:07;;;;;;;1.25;1.00;;;25.80;52.20;;;;;;5027441;28;20134;-58
2021/09/12 04:16:33;;;;;;;1.08;0.98;;;25.80;52.30;;;;;;5033957;28;20104;-52
2021/09/12 04:18:58;;;;;;;1.77;1.02;;;25.80;52.30;;;;;;5042701;28;20841;-59
2021/09/12 04:21:24;;;;;;;1.27;0.93;;;25.80;52.40;;;;;;5034988;28;20457;-56
2021/09/12 04:23:50;;;;;;;1.88;1.00;;;25.70;52.30;;;;;;5029380;28;20022;-52
2021/09/12 04:26:15;;;;;;;1.45;0.95;;;25.70;52.30;;;;;;5037146;28;20025;-55
2021/09/12 04:28:41;;;;;;;1.15;0.90;;;25.70;52.40;;;;;;5028980;28;20065;-60
2021/09/12 04:31:07;;;;;;;0.80;0.80;;;25.70;52.30;;;;;;5032022;28;20111;-58
2021/09/12 04:33:32;;;;;;;1.38;1.00;;;25.70;52.30;;;;;;5039278;28;20029;-54
2021/09/12 04:35:58;;;;;;;1.40;1.08;;;25.70;52.40;;;;;;5045184;28;20120;-50
2021/09/12 04:38:24;;;;;;;1.10;0.90;;;25.70;52.40;;;;;;5035333;28;20029;-56
2021/09/12 04:40:49;;;;;;;1.40;0.95;;;25.70;52.40;;;;;;5045686;28;20111;-59
2021/09/12 04:43:15;;;;;;;1.10;0.90;;;25.70;52.40;;;;;;5042369;28;20215;-52
2021/09/12 04:45:41;;;;;;;1.27;0.90;;;25.70;52.40;;;;;;5036797;28;20574;-60
2021/09/12 04:48:07;;;;;;;0.80;0.80;;;25.70;52.40;;;;;;5043034;28;20068;-52
2021/09/12 04:50:33;;;;;;;1.73;0.90;;;25.60;52.40;;;;;;5027873;28;20034;-60
2021/09/12 04:52:59;;;;;;;1.25;0.90;;;25.60;52.40;;;;;;5029138;28;20040;-52
2021/09/12 04:55:24;;;;;;;1.30;0.90;;;25.60;52.40;;;;;;5036845;28;20039;-60
2021/09/12 04:57:50;;;;;;;0.80;0.80;;;25.60;52.40;;;;;;5043911;28;20067;-53
2021/09/12 05:00:16;;;;;;;0.80;0.80;;;25.60;52.50;;;;;;5030036;28;20036;-50
2021/09/12 05:02:42;;;;;;;1.80;1.00;;;25.60;52.50;;;;;;5035949;28;20511;-58
2021/09/12 05:05:08;;;;;;;1.15;0.90;;;25.50;52.40;;;;;;5044334;28;20037;-53
2021/09/12 05:07:34;;;;;;;0.90;0.80;;;25.50;52.40;;;;;;5031932;28;20032;-58
2021/09/12 05:09:59;;;;;;;1.52;0.90;;;25.60;52.50;;;;;;5038285;28;20021;-47
2021/09/12 05:12:27;;;;;;;1.30;0.90;;;25.60;52.60;;;;;;5032455;28;20033;-59
2021/09/12 05:14:53;;;;;;;0.95;0.88;;;25.50;52.50;;;;;;5047146;28;20033;-53
2021/09/12 05:17:18;;;;;;;1.48;0.90;;;25.50;52.50;;;;;;5037159;28;20096;-59
2021/09/12 05:19:44;;;;;;;1.40;0.90;;;25.50;52.60;;;;;;5041416;28;20038;-58
2021/09/12 05:22:10;;;;;;;1.15;1.00;;;25.50;52.50;;;;;;5044976;28;20108;-52
2021/09/12 05:24:35;;;;;;;1.20;0.90;;;25.50;52.60;;;;;;5044515;28;20228;-49
2021/09/12 05:27:01;;;;;;;1.15;0.90;;;25.50;52.60;;;;;;5041267;28;20086;-58
2021/09/12 05:29:26;;;;;;;0.93;0.80;;;25.50;52.60;;;;;;5040088;28;20032;-59
2021/09/12 05:31:52;;;;;;;0.80;0.75;;;25.50;52.60;;;;;;5040798;28;20038;-55
2021/09/12 05:34:18;;;;;;;1.17;0.88;;;25.50;52.60;;;;;;5040486;28;20021;-54
2021/09/12 05:36:44;;;;;;;1.05;0.85;;;25.40;52.60;;;;;;5041438;28;20532;-58
2021/09/12 05:39:09;;;;;;;1.00;0.80;;;25.40;53.10;;;;;;5042586;28;20068;-59
2021/09/12 05:41:35;;;;;;;1.10;0.80;;;25.40;52.60;;;;;;5036201;28;20030;-57
2021/09/12 05:44:01;;;;;;;1.00;0.90;;;25.40;52.60;;;;;;5046842;28;20563;-58
2021/09/12 05:46:27;;;;;;;1.40;0.88;;;25.40;52.60;;;;;;5039564;28;20418;-55
2021/09/12 05:48:53;;;;;;;1.13;0.90;;;25.40;52.60;;;;;;5041367;28;20052;-50
2021/09/12 05:51:18;;;;;;;0.90;0.70;;;25.40;52.60;;;;;;5045054;28;20032;-59
2021/09/12 05:53:44;;;;;;;1.08;0.90;;;25.40;52.60;;;;;;5043249;28;20116;-55
2021/09/12 05:56:10;;;;;;;0.95;0.85;;;25.40;52.70;;;;;;5032766;28;20706;-60
2021/09/12 05:58:35;;;;;;;1.77;0.93;;;25.40;52.70;;;;;;5037673;28;20041;-53
2021/09/12 06:01:01;;;;;;;1.23;1.10;;;25.40;52.70;;;;;;5038527;28;20048;-54
2021/09/12 06:03:26;;;;;;;0.80;0.80;;;25.40;52.70;;;;;;5037108;28;20137;-59
2021/09/12 06:05:52;;;;;;;1.02;0.80;;;25.30;52.70;;;;;;5038462;28;20033;-55
2021/09/12 06:08:18;;;;;;;1.23;0.90;;;25.30;52.70;;;;;;5033913;28;20057;-55
2021/09/12 06:10:44;;;;;;;1.08;0.98;;;25.30;52.70;;;;;;5034316;28;20025;-56
2021/09/12 06:13:09;;;;;;;1.00;0.90;;;25.30;52.70;;;;;;5037074;28;20106;-58
2021/09/12 06:15:35;;;;;;;0.93;0.80;;;25.30;53.30;;;;;;5043379;28;20033;-56
2021/09/12 06:18:00;;;;;;;1.10;0.80;;;25.30;52.70;;;;;;5037847;28;20017;-58
2021/09/12 06:20:26;;;;;;;1.50;0.90;;;25.30;52.80;;;;;;5036980;28;20125;-58
2021/09/12 06:22:53;;;;;;;1.35;0.88;;;25.30;52.80;;;;;;5037730;28;20183;-58
2021/09/12 06:25:20;;;;;;;1.25;0.95;;;25.30;52.80;;;;;;5038060;28;20156;-58
2021/09/12 06:27:46;;;;;;;1.13;0.80;;;25.30;52.80;;;;;;5032893;28;20088;-56
2021/09/12 06:30:13;;;;;;;1.33;0.90;;;25.30;52.80;;;;;;5040823;28;20118;-54
2021/09/12 06:32:39;;;;;;;1.13;0.80;;;25.20;52.70;;;;;;5048667;28;20131;-54
2021/09/12 06:35:05;;;;;;;0.88;0.80;;;25.30;52.80;;;;;;5057453;28;20701;-58
2021/09/12 06:37:32;;;;;;;1.05;0.90;;;25.20;52.70;;;;;;5038025;28;20124;-54
2021/09/12 06:39:58;;;;;;;1.17;0.88;;;25.20;52.70;;;;;;5052343;28;20121;-54
2021/09/12 06:42:24;;;;;;;1.10;0.80;;;25.20;52.80;;;;;;5036036;28;20061;-59
2021/09/12 06:44:49;;;;;;;1.20;0.90;;;25.20;52.70;;;;;;5042157;28;20099;-58
2021/09/12 06:47:15;;;;;;;1.08;0.80;;;25.20;52.70;;;;;;5043585;28;20033;-56
2021/09/12 06:49:40;;;;;;;0.80;0.80;;;25.20;52.80;;;;;;5033923;28;20143;-60
2021/09/12 06:52:06;;;;;;;0.90;0.80;;;25.20;52.80;;;;;;5034775;28;20051;-59
2021/09/12 06:54:32;;;;;;;1.15;0.90;;;25.20;52.80;;;;;;5034978;28;20120;-55
2021/09/12 06:56:58;;;;;;;0.93;0.70;;;25.20;52.80;;;;;;5033475;28;20365;-52
2021/09/12 06:59:23;;;;;;;1.02;0.80;;;25.10;52.80;;;;;;5045979;28;20028;-53
2021/09/12 07:01:49;;;;;;;1.45;0.80;;;25.20;52.80;;;;;;5038214;28;20644;-52
2021/09/12 07:04:14;;;;;;;0.70;0.70;;;25.20;52.80;;;;;;5044854;28;20103;-57
2021/09/12 07:06:40;;;;;;;1.02;0.90;;;25.10;52.80;;;;;;5044284;28;20504;-56
2021/09/12 07:09:06;;;;;;;0.98;0.75;;;25.10;52.80;;;;;;5042784;28;20030;-54
2021/09/12 07:11:31;;;;;;;0.98;0.80;;;25.10;52.80;;;;;;5050967;28;20083;-58
2021/09/12 07:13:57;;;;;;;1.52;0.80;;;25.10;52.80;;;;;;5038584;28;20025;-57
2021/09/12 07:16:23;;;;;;;0.70;0.70;;;25.10;52.80;;;;;;5047180;28;20033;-57
2021/09/12 07:18:48;;;;;;;1.15;0.75;;;25.10;52.80;;;;;;5041217;28;20035;-53
2021/09/12 07:21:14;;;;;;;0.90;0.80;;;25.10;52.80;;;;;;5046497;28;20079;-55
2021/09/12 07:23:39;;;;;;;0.93;0.80;;;25.10;52.80;;;;;;5044737;28;20349;-58
2021/09/12 07:26:05;;;;;;;1.05;0.80;;;25.10;52.80;;;;;;5063089;28;20039;-59
2021/09/12 07:28:31;;;;;;;1.00;0.80;;;25.10;52.80;;;;;;5032847;28;20021;-58
2021/09/12 07:30:57;;;;;;;0.88;0.80;;;25.10;52.90;;;;;;5040782;28;20037;-58
2021/09/12 07:33:22;;;;;;;1.48;1.00;;;25.10;52.90;;;;;;5040508;28;20032;-58
2021/09/12 07:35:48;;;;;;;1.30;1.00;;;25.10;52.90;;;;;;5044286;28;20146;-51
2021/09/12 07:38:13;;;;;;;0.98;0.90;;;25.10;52.90;;;;;;5041898;28;20044;-59
2021/09/12 07:40:39;;;;;;;1.02;0.80;;;25.10;52.90;;;;;;5039257;28;20792;-60
2021/09/12 07:43:05;;;;;;;1.33;0.80;;;25.10;53.00;;;;;;5034560;28;20052;-57
2021/09/12 07:45:30;;;;;;;1.27;0.90;;;25.10;53.00;;;;;;5033953;28;20024;-58
2021/09/12 07:47:56;;;;;;;0.98;0.75;;;25.10;53.00;;;;;;5043770;28;20033;-50
2021/09/12 07:50:22;;;;;;;0.82;0.82;;;25.10;53.00;;;;;;5053223;28;20044;-59
2021/09/12 07:52:47;;;;;;;1.23;0.90;;;25.10;53.00;;;;;;5052185;28;20021;-58
2021/09/12 07:55:15;;;;;;;1.20;0.80;;;25.10;53.00;;;;;;5049057;28;20045;-52
2021/09/12 07:57:41;;;;;;;0.80;0.80;;;25.10;53.00;;;;;;5056169;28;20035;-59
2021/09/12 08:00:08;;;;;;;0.80;0.80;;;25.00;52.90;;;;;;5044553;28;20353;-56
2021/09/12 08:02:34;;;;;;;1.00;0.80;;;25.00;52.90;;;;;;5040957;28;20052;-57
2021/09/12 08:05:00;;;;;;;0.98;0.80;;;25.00;53.00;;;;;;5035574;28;20026;-52
2021/09/12 08:07:25;;;;;;;1.75;0.88;;;25.10;53.00;;;;;;5042949;28;20920;-59
2021/09/12 08:09:51;;;;;;;0.80;0.80;;;25.00;53.00;;;;;;5035981;28;20583;-58
2021/09/12 08:12:17;;;;;;;0.77;0.77;;;25.00;53.00;;;;;;5037521;28;20108;-59
2021/09/12 08:14:43;;;;;;;1.00;0.90;;;25.00;53.00;;;;;;5038888;28;20036;-59
2021/09/12 08:17:08;;;;;;;1.08;0.75;;;25.00;52.90;;;;;;5057270;28;20039;-58
2021/09/12 08:19:34;;;;;;;1.05;0.90;;;25.00;53.00;;;;;;5033201;28;20109;-57
2021/09/12 08:21:59;;;;;;;0.82;0.80;;;25.00;53.00;;;;;;5044143;28;20029;-54
2021/09/12 08:24:25;;;;;;;1.42;0.90;;;25.00;53.00;;;;;;5042740;28;20061;-58
2021/09/12 08:26:51;;;;;;;1.13;0.85;;;25.00;53.00;;;;;;5040892;28;20047;-58
2021/09/12 08:29:16;;;;;;;1.15;0.77;;;25.00;53.00;;;;;;5038278;28;20025;-46
2021/09/12 08:31:42;;;;;;;1.27;0.90;;;25.00;53.00;;;;;;5038295;28;20485;-58
2021/09/12 08:34:08;;;;;;;0.70;0.70;;;25.00;53.00;;;;;;5035454;28;20132;-58
2021/09/12 08:36:34;;;;;;;1.10;0.80;;;25.00;53.10;;;;;;5043390;28;20442;-57
2021/09/12 08:38:59;;;;;;;0.90;0.73;;;25.00;53.10;;;;;;5047069;28;20026;-57
2021/09/12 08:41:25;;;;;;;0.90;0.80;;;25.00;53.00;;;;;;5040603;28;20056;-52
2021/09/12 08:43:51;;;;;;;1.13;0.82;;;25.00;53.00;;;;;;5041247;28;20035;-56
2021/09/12 08:46:17;;;;;;;1.20;0.90;;;25.00;53.10;;;;;;5048132;28;20379;-59
2021/09/12 08:48:44;;;;;;;1.25;0.90;;;25.00;53.10;;;;;;5051701;28;20033;-58
2021/09/12 08:51:10;;;;;;;0.90;0.77;;;25.00;53.10;;;;;;5039580;28;20516;-54
2021/09/12 08:53:36;;;;;;;0.82;0.80;;;25.00;53.10;;;;;;5044072;28;20135;-58
2021/09/12 08:56:01;;;;;;;0.90;0.80;;;25.00;53.10;;;;;;5044221;28;20508;-58
2021/09/12 08:58:28;;;;;;;0.95;0.80;;;25.00;53.10;;;;;;5037427;28;20041;-57
2021/09/12 09:00:58;;;;;;;1.05;0.90;;;25.00;53.10;;;;;;5053649;28;20158;-57
2021/09/12 09:03:36;;;;;;;1.08;0.80;;;25.00;53.10;;;;;;5048467;28;20032;-53
2021/09/12 09:06:14;;;;;;;2.05;0.90;;;25.00;53.10;;;;;;5042252;28;20037;-58
2021/09/12 09:08:51;;;;;;;1.10;0.90;;;25.00;53.60;;;;;;5041547;28;20032;-58
2021/09/12 09:11:30;;;;;;;1.10;0.80;;;25.00;53.10;;;;;;5039148;28;20539;-59
2021/09/12 09:14:10;;;;;;;0.95;0.80;;;25.00;53.10;;;;;;5063900;28;20032;-59
2021/09/12 09:16:36;;;;;;;1.27;0.75;;;25.00;53.10;;;;;;5052118;28;20044;-51
2021/09/12 09:19:04;;;;;;;1.02;0.90;;;25.00;53.10;;;;;;5044599;28;20056;-56
2021/09/12 09:21:35;;;;;;;1.15;0.90;;;25.00;53.10;;;;;;5032631;28;20091;-58
2021/09/12 09:24:29;;;;;;;1.15;0.80;;;25.00;53.70;;;;;;5044799;28;20037;-58
2021/09/12 09:26:59;;;;;;;0.90;0.80;;;25.00;53.10;;;;;;5041795;28;20449;-58
2021/09/12 09:29:30;;;;;;;1.13;0.85;;;25.00;53.10;;;;;;5037030;28;20488;-55
2021/09/12 09:32:03;;;;;;;1.00;0.82;;;25.00;53.10;;;;;;5044467;28;20098;-53
2021/09/12 09:34:29;;;;;;;1.17;1.00;;;25.00;53.10;;;;;;5046223;28;20354;-57
2021/09/12 09:37:06;;;;;;;1.20;0.82;;;25.00;53.10;;;;;;5043285;28;20033;-55
2021/09/12 09:39:39;;;;;;;1.30;0.90;;;25.00;53.10;;;;;;5039887;28;20476;-56
2021/09/12 09:42:05;;;;;;;1.13;0.95;;;25.00;53.10;;;;;;5056256;28;20043;-60
2021/09/12 09:44:31;;;;;;;0.93;0.82;;;24.90;53.10;;;;;;5038338;28;20021;-53
2021/09/12 09:47:08;;;;;;;1.02;0.80;;;25.00;53.20;;;;;;5050114;28;20028;-53
2021/09/12 09:49:37;;;;;;;1.50;1.08;;;25.00;53.20;;;;;;5033630;28;20044;-53
2021/09/12 09:52:02;;;;;;;1.00;0.90;;;24.90;53.10;;;;;;5039311;28;20036;-60
2021/09/12 09:54:31;;;;;;;1.10;0.90;;;24.90;53.10;;;;;;5042720;28;20029;-58
2021/09/12 09:56:58;;;;;;;1.30;1.00;;;25.00;53.10;;;;;;5042522;28;20029;-58
2021/09/12 09:59:25;;;;;;;1.20;1.00;;;25.00;53.10;;;;;;5034416;28;20638;-55
2021/09/12 10:01:53;;;;;;;0.90;0.80;;;25.00;53.20;;;;;;5041320;28;20099;-54
2021/09/12 10:04:21;;;;;;;1.15;0.82;;;25.00;53.10;;;;;;5050756;28;20619;-54
2021/09/12 10:06:47;;;;;;;1.33;1.10;;;24.90;53.10;;;;;;5038407;28;20048;-60
2021/09/12 10:09:15;;;;;;;1.45;0.90;;;25.00;53.20;;;;;;5040907;28;20037;-49
2021/09/12 10:12:02;;;;;;;1.40;0.90;;;25.00;53.20;;;;;;5036627;28;20025;-54
2021/09/12 10:14:40;;;;;;;1.27;0.90;;;25.00;53.30;;;;;;5039476;28;20032;-61
2021/09/12 10:17:11;;;;;;;1.23;0.90;;;25.00;53.30;;;;;;5042800;28;20242;-49
2021/09/12 10:19:41;;;;;;;1.08;0.90;;;25.00;53.30;;;;;;5052881;28;20420;-49
2021/09/12 10:22:16;;;;;;;1.63;1.00;;;25.00;53.40;;;;;;5034978;28;20025;-59
2021/09/12 10:25:00;;;;;;;1.50;0.95;;;25.00;53.40;;;;;;5034075;28;20042;-54
2021/09/12 10:27:35;;;;;;;1.30;0.82;;;25.00;53.40;;;;;;5030174;28;20025;-57
2021/09/12 10:30:19;;;;;;;1.48;1.10;;;25.00;53.40;;;;;;5036154;28;20419;-58
2021/09/12 10:32:45;;;;;;;1.30;0.90;;;25.00;53.50;;;;;;5036612;28;20139;-57
2021/09/12 10:35:13;;;;;;;1.73;1.00;;;25.00;54.00;;;;;;5039893;28;20040;-58
2021/09/12 10:37:39;;;;;;;1.08;0.90;;;25.00;53.50;;;;;;5044177;28;20042;-52
2021/09/12 10:40:05;;;;;;;1.65;1.10;;;25.00;53.50;;;;;;5043694;28;20079;-53
2021/09/12 10:42:43;;;;;;;1.17;1.00;;;25.00;53.50;;;;;;5045120;28;20048;-60
2021/09/12 10:45:27;;;;;;;1.55;1.17;;;25.00;53.50;;;;;;5046005;28;20112;-52
2021/09/12 10:48:20;;;;;;;1.85;1.10;;;25.00;53.50;;;;;;5051543;28;20072;-52
2021/09/12 10:50:46;;;;;;;1.58;1.10;;;25.00;53.40;;;;;;5038178;28;20041;-53
2021/09/12 10:53:12;;;;;;;1.50;1.00;;;25.00;53.40;;;;;;5037750;28;20333;-59
2021/09/12 10:56:15;;;;;;;1.55;1.10;;;25.00;53.40;;;;;;5041325;28;20040;-59
2021/09/12 10:58:42;;;;;;;1.35;1.00;;;25.00;53.40;;;;;;5004413;28;20080;-59
2021/09/12 11:01:11;;;;;;;1.42;1.10;;;25.00;53.40;;;;;;5048005;28;20064;-60
2021/09/12 11:03:37;;;;;;;1.25;1.00;;;25.00;53.40;;;;;;5039368;28;20450;-59
2021/09/12 11:06:03;;;;;;;1.30;1.08;;;25.00;53.40;;;;;;5060655;28;20085;-54
2021/09/12 11:08:33;;;;;;;1.42;0.98;;;25.10;53.50;;;;;;5048308;28;20111;-57
2021/09/12 11:10:59;;;;;;;0.98;0.80;;;25.10;53.50;;;;;;5040873;28;20021;-54
2021/09/12 11:13:26;;;;;;;1.38;0.90;;;25.10;53.50;;;;;;5028092;28;20030;-58
2021/09/12 11:15:54;;;;;;;1.35;1.00;;;25.10;53.40;;;;;;5043455;28;20040;-59
2021/09/12 11:18:21;;;;;;;1.50;1.00;;;25.10;53.40;;;;;;5046232;28;20028;-52
2021/09/12 11:20:48;;;;;;;1.40;0.88;;;25.10;53.40;;;;;;5040576;28;20021;-59
2021/09/12 11:23:40;;;;;;;1.60;1.10;;;25.10;53.40;;;;;;5031870;28;20464;-59
2021/09/12 11:26:06;;;;;;;1.50;0.93;;;25.10;53.40;;;;;;5041596;28;20041;-54
2021/09/12 11:28:35;;;;;;;1.40;1.00;;;25.10;53.30;;;;;;5038719;28;20036;-55
2021/09/12 11:31:02;;;;;;;1.40;1.05;;;25.10;53.30;;;;;;5037636;28;20119;-59
2021/09/12 11:33:50;;;;;;;1.45;0.98;;;25.10;53.30;;;;;;5027805;28;20529;-59
2021/09/12 11:36:16;;;;;;;1.70;0.97;;;25.10;53.30;;;;;;5041582;28;20064;-60
2021/09/12 11:38:42;;;;;;;1.25;0.90;;;25.10;53.30;;;;;;5038913;28;20303;-59
2021/09/12 11:41:08;;;;;;;0.98;0.88;;;25.10;53.30;;;;;;5037377;28;20064;-57
2021/09/12 11:43:36;;;;;;;1.20;0.90;;;25.10;53.20;;;;;;5039265;28;20071;-50
2021/09/12 11:46:10;;;;;;;1.50;1.05;;;25.10;53.20;;;;;;5031768;28;20123;-56
2021/09/12 11:48:37;;;;;;;1.63;1.00;;;25.10;53.20;;;;;;5043623;28;20036;-53
2021/09/12 11:51:02;;;;;;;0.98;0.88;;;25.10;53.20;;;;;;5040090;28;20249;-57
2021/09/12 11:53:28;;;;;;;1.05;0.95;;;25.10;53.20;;;;;;5033746;28;20103;-60
2021/09/12 11:55:54;;;;;;;1.48;0.98;;;25.10;53.20;;;;;;5042754;28;20107;-53
2021/09/12 11:58:20;;;;;;;1.10;1.00;;;25.20;53.20;;;;;;5044326;28;20028;-56
2021/09/12 12:00:47;;;;;;;1.80;0.90;;;25.20;53.20;;;;;;5038304;28;20126;-58
2021/09/12 12:03:15;;;;;;;1.27;0.90;;;25.10;53.20;;;;;;5031136;28;20480;-52
2021/09/12 12:05:43;;;;;;;1.27;0.98;;;25.20;53.20;;;;;;5037741;28;20037;-59
2021/09/12 12:08:13;;;;;;;0.98;0.88;;;25.20;53.20;;;;;;5052273;28;20039;-58
2021/09/12 12:10:39;;;;;;;1.30;1.05;;;25.20;53.20;;;;;;5038092;28;20036;-57
2021/09/12 12:13:05;;;;;;;1.30;1.10;;;25.10;53.10;;;;;;5045165;28;20033;-54
2021/09/12 12:15:36;;;;;;;1.75;1.00;;;25.20;53.10;;;;;;5035636;28;20107;-50
2021/09/12 12:18:20;;;;;;;1.58;1.00;;;25.20;53.10;;;;;;5035865;28;20056;-59
2021/09/12 12:20:46;;;;;;;1.00;0.90;;;25.20;53.10;;;;;;5036270;28;20165;-53
2021/09/12 12:23:19;;;;;;;1.05;0.82;;;25.20;53.10;;;;;;5043255;28;20067;-59
2021/09/12 12:25:47;;;;;;;1.20;1.00;;;25.20;53.10;;;;;;5049364;28;20112;-58
2021/09/12 12:28:22;;;;;;;1.02;0.82;;;25.20;53.00;;;;;;5044038;28;20120;-53
2021/09/12 12:31:08;;;;;;;1.23;1.00;;;25.30;53.10;;;;;;5041574;28;20493;-54
2021/09/12 12:33:34;;;;;;;1.40;1.02;;;25.20;53.00;;;;;;5037624;28;20420;-56
2021/09/12 12:36:16;;;;;;;1.23;0.90;;;25.20;53.00;;;;;;5032642;28;20028;-52
2021/09/12 12:38:42;;;;;;;1.35;0.98;;;25.30;53.00;;;;;;5043682;28;20100;-52
2021/09/12 12:41:09;;;;;;;1.63;0.90;;;25.20;53.00;;;;;;5043755;28;20156;-47
2021/09/12 12:43:35;;;;;;;1.02;0.77;;;25.20;52.90;;;;;;5044486;28;20036;-58
2021/09/12 12:46:01;;;;;;;0.95;0.85;;;25.30;53.00;;;;;;5036176;28;20081;-56
2021/09/12 12:48:27;;;;;;;1.00;0.90;;;25.30;53.00;;;;;;5034801;28;20021;-60
2021/09/12 12:50:53;;;;;;;0.90;0.80;;;25.30;53.00;;;;;;5039241;28;20052;-56
2021/09/12 12:53:37;;;;;;;0.98;0.80;;;25.30;53.00;;;;;;5045381;28;20044;-61
2021/09/12 12:56:08;;;;;;;1.33;0.90;;;25.30;52.90;;;;;;5047308;28;20043;-59